This is the latest recevied weather packets stored in our database for station/object KK4XZ. If no packets are shown the sender has not sent any weather packets the latest 10 day(s).
| Time | Temp. | Humidity | Pressure | Rain* | Wind** | Luminosity | Snow |
|---|---|---|---|---|---|---|---|
| 1777919117 | 21.67° C | 57% | 1017.8 hPa | 0 mm | - | - | - |
| 1777918532 | 21.67° C | 57% | 1017.9 hPa | 0 mm | - | - | - |
| 1777917927 | 21.67° C | 56% | 1017.9 hPa | 0 mm | - | - | - |
| 1777917322 | 21.67° C | 55% | 1017.9 hPa | 0 mm | - | - | - |
| 1777916717 | 22.22° C | 55% | 1017.8 hPa | 0 mm | - | - | - |
| 1777916133 | 22.22° C | 55% | 1017.8 hPa | 0 mm | - | - | - |
| 1777915527 | 22.78° C | 54% | 1017.9 hPa | 0 mm | - | - | - |
| 1777914923 | 22.22° C | 56% | 1017.9 hPa | 0 mm | - | - | - |
| 1777914318 | 21.67° C | 55% | 1018 hPa | 0 mm | - | - | - |
| 1777913733 | 21.11° C | 57% | 1018 hPa | 0 mm | - | - | - |
| 1777913128 | 22.22° C | 53% | 1018.1 hPa | 0 mm | - | - | - |
| 1777912523 | 21.67° C | 55% | 1018.1 hPa | 0 mm | - | - | - |
| 1777911919 | 21.67° C | 57% | 1018.3 hPa | 0 mm | - | - | - |
| 1777911334 | 21.67° C | 57% | 1018.2 hPa | 0 mm | - | - | - |
| 1777910729 | 21.67° C | 56% | 1018.4 hPa | 0 mm | - | - | - |
| 1777910124 | 21.67° C | 55% | 1018.3 hPa | 0 mm | - | - | - |
| 1777909519 | 21.67° C | 55% | 1018.4 hPa | 0 mm | - | - | - |
| 1777908934 | 22.22° C | 53% | 1018.6 hPa | 0 mm | - | - | - |
| 1777908329 | 22.22° C | 54% | 1018.5 hPa | 0 mm | - | - | - |
| 1777907725 | 22.22° C | 55% | 1018.4 hPa | 0 mm | - | - | - |
| 1777907120 | 21.11° C | 55% | 1018.4 hPa | 0 mm | - | - | - |
| 1777906536 | 21.67° C | 53% | 1018.4 hPa | 0 mm | - | - | - |
| 1777905931 | 21.11° C | 55% | 1018.2 hPa | 0 mm | - | - | - |
| 1777905326 | 21.11° C | 57% | 1018.3 hPa | 0 mm | - | - | - |
| 1777904721 | 20.56° C | 57% | 1018.3 hPa | 0 mm | - | - | - |
* Rain latest hour (hover to see other rain measurements)
** Current wind speed in m/s (hover to see current wind gust speed)